createdAt,value
2019-02-15T00:02:20.877Z,102849.23
2019-02-15T00:04:49.196Z,102851.14
2019-02-15T00:07:17.554Z,102855.59
2019-02-15T00:09:46.273Z,102848.42
2019-02-15T00:12:14.656Z,102850.05
2019-02-15T00:14:49.238Z,102852.77
2019-02-15T00:17:18.601Z,102856.73
2019-02-15T00:19:48.568Z,102854.79
2019-02-15T00:22:16.939Z,102853.91
2019-02-15T00:24:45.281Z,102857.77
2019-02-15T00:27:13.676Z,102852.52
2019-02-15T00:29:42.098Z,102854.79
2019-02-15T00:32:10.400Z,102853.32
2019-02-15T00:34:38.778Z,102855.23
2019-02-15T00:37:07.143Z,102862.06
2019-02-15T00:39:44.928Z,102858.75
2019-02-15T00:42:13.351Z,102860.37
2019-02-15T00:44:41.749Z,102853.66
2019-02-15T00:47:20.750Z,102861.84
2019-02-15T00:49:50.740Z,102857.50
2019-02-15T00:52:20.752Z,102854.79
2019-02-15T00:54:56.646Z,102854.34
2019-02-15T00:57:26.632Z,102852.52
2019-02-15T00:59:56.667Z,102847.19
2019-02-15T01:02:26.683Z,102845.94
2019-02-15T01:04:59.467Z,102845.46
2019-02-15T01:07:38.381Z,102845.72
2019-02-15T01:10:11.240Z,102850.45
2019-02-15T01:12:41.264Z,102841.83
2019-02-15T01:15:09.645Z,102839.33
2019-02-15T01:17:38.017Z,102843.66
2019-02-15T01:20:06.402Z,102840.02
2019-02-15T01:22:34.785Z,102844.69
2019-02-15T01:25:03.311Z,102840.02
2019-02-15T01:27:45.590Z,102840.35
2019-02-15T01:30:18.460Z,102844.80
2019-02-15T01:33:05.060Z,102844.09
2019-02-15T01:35:35.087Z,102844.09
2019-02-15T01:38:07.900Z,102845.93
2019-02-15T01:40:37.992Z,102841.38
2019-02-15T01:43:10.530Z,102839.43
2019-02-15T01:45:40.514Z,102834.80
2019-02-15T01:48:08.871Z,102834.80
2019-02-15T01:50:37.243Z,102829.22
2019-02-15T01:53:05.671Z,102820.81
2019-02-15T01:55:34.185Z,102820.81
2019-02-15T01:58:02.536Z,102822.75
2019-02-15T02:00:31.882Z,102821.28
2019-02-15T02:03:00.290Z,102818.79
2019-02-15T02:05:28.672Z,102821.61
2019-02-15T02:07:57.109Z,102816.63
2019-02-15T02:10:25.501Z,102820.03
2019-02-15T02:12:53.875Z,102814.02
2019-02-15T02:15:22.219Z,102815.16
2019-02-15T02:17:50.630Z,102812.99
2019-02-15T02:20:19.123Z,102809.13
2019-02-15T02:22:47.434Z,102810.94
2019-02-15T02:25:16.154Z,102817.77
2019-02-15T02:27:44.627Z,102811.73
2019-02-15T02:30:13.018Z,102812.17
2019-02-15T02:32:41.387Z,102812.17
2019-02-15T02:35:09.754Z,102805.28
2019-02-15T02:37:38.133Z,102815.04
2019-02-15T02:40:08.347Z,102806.16
2019-02-15T02:42:36.717Z,102807.66
2019-02-15T02:45:06.840Z,102808.76
2019-02-15T02:47:35.602Z,102805.81
2019-02-15T02:50:05.280Z,102805.81
2019-02-15T02:52:33.746Z,102796.48
2019-02-15T02:55:02.091Z,102802.87
2019-02-15T02:57:30.471Z,102799.67
2019-02-15T02:59:58.846Z,102800.70
2019-02-15T03:02:27.195Z,102795.38
2019-02-15T03:04:55.864Z,102797.40
2019-02-15T03:07:24.237Z,102797.40
2019-02-15T03:09:52.620Z,102791.27
2019-02-15T03:12:20.997Z,102795.81
2019-02-15T03:14:49.338Z,102792.73
2019-02-15T03:17:17.832Z,102793.98
2019-02-15T03:19:46.293Z,102798.20
2019-02-15T03:22:14.646Z,102802.48
2019-02-15T03:24:43.242Z,102792.83
2019-02-15T03:27:11.721Z,102792.83
2019-02-15T03:29:40.032Z,102797.05
2019-02-15T03:32:08.396Z,102797.70
2019-02-15T03:34:36.764Z,102799.05
2019-02-15T03:37:09.764Z,102802.24
2019-02-15T03:39:39.738Z,102793.19
2019-02-15T03:42:09.394Z,102790.44
2019-02-15T03:44:37.866Z,102793.52
2019-02-15T03:47:06.213Z,102790.33
2019-02-15T03:49:34.564Z,102790.33
2019-02-15T03:52:02.969Z,102794.77
2019-02-15T03:54:31.403Z,102792.70
2019-02-15T03:56:59.746Z,102795.63
2019-02-15T03:59:28.115Z,102791.89
2019-02-15T04:01:56.710Z,102789.64
2019-02-15T04:04:25.102Z,102788.13
2019-02-15T04:06:53.468Z,102775.00
2019-02-15T04:09:21.847Z,102775.00
2019-02-15T04:11:50.212Z,102777.38
2019-02-15T04:14:18.920Z,102768.38
2019-02-15T04:16:47.274Z,102770.32
2019-02-15T04:19:15.692Z,102777.37
2019-02-15T04:21:44.008Z,102786.00
2019-02-15T04:24:13.591Z,102782.27
2019-02-15T04:26:42.083Z,102783.52
2019-02-15T04:29:10.438Z,102778.14
2019-02-15T04:31:38.799Z,102773.85
2019-02-15T04:34:07.164Z,102775.22
2019-02-15T04:36:35.699Z,102778.73
2019-02-15T04:39:04.855Z,102772.27
2019-02-15T04:41:33.441Z,102771.80
2019-02-15T04:44:03.120Z,102778.34
2019-02-15T04:46:31.558Z,102778.34
2019-02-15T04:48:59.929Z,102776.87
2019-02-15T04:51:28.287Z,102775.73
2019-02-15T04:53:56.664Z,102777.89
2019-02-15T04:56:25.019Z,102771.55
2019-02-15T04:58:53.371Z,102778.11
2019-02-15T05:01:21.891Z,102775.63
2019-02-15T05:03:50.285Z,102775.17
2019-02-15T05:06:18.704Z,102769.92
2019-02-15T05:08:47.102Z,102770.62
2019-02-15T05:11:15.429Z,102761.18
2019-02-15T05:13:43.787Z,102763.57
2019-02-15T05:16:12.427Z,102760.41
2019-02-15T05:18:40.802Z,102770.39
2019-02-15T05:21:09.202Z,102767.31
2019-02-15T05:23:37.672Z,102771.05
2019-02-15T05:26:05.986Z,102769.58
2019-02-15T05:28:34.361Z,102762.80
2019-02-15T05:31:02.715Z,102761.87
2019-02-15T05:33:31.064Z,102756.08
2019-02-15T05:35:59.775Z,102761.27
2019-02-15T05:38:28.210Z,102760.38
2019-02-15T05:40:56.580Z,102761.63
2019-02-15T05:43:25.072Z,102767.27
2019-02-15T05:45:53.460Z,102760.12
2019-02-15T05:48:21.792Z,102764.88
2019-02-15T05:50:50.144Z,102763.08
2019-02-15T05:53:18.506Z,102763.08
2019-02-15T05:55:46.878Z,102764.33
2019-02-15T05:58:15.214Z,102758.87
2019-02-15T06:00:43.648Z,102760.48
2019-02-15T06:03:13.682Z,102758.75
2019-02-15T06:05:42.274Z,102762.59
2019-02-15T06:08:10.682Z,102753.31
2019-02-15T06:10:39.501Z,102751.74
2019-02-15T06:13:07.854Z,102754.69
2019-02-15T06:15:36.231Z,102759.34
2019-02-15T06:18:04.589Z,102757.05
2019-02-15T06:20:32.963Z,102765.55
2019-02-15T06:23:01.312Z,102763.06
2019-02-15T06:25:29.732Z,102765.19
2019-02-15T06:27:58.123Z,102767.58
2019-02-15T06:30:26.484Z,102768.83
2019-02-15T06:32:55.125Z,102773.02
2019-02-15T06:35:23.480Z,102775.03
2019-02-15T06:37:51.940Z,102776.64
2019-02-15T06:40:20.382Z,102774.14
2019-02-15T06:42:48.738Z,102777.39
2019-02-15T06:45:24.228Z,102779.56
2019-02-15T06:47:48.026Z,102777.98
2019-02-15T06:50:16.369Z,102776.84
2019-02-15T06:52:44.757Z,102780.48
2019-02-15T06:55:13.117Z,102778.54
2019-02-15T06:57:41.501Z,102783.75
2019-02-15T07:00:18.853Z,102781.27
2019-02-15T07:02:54.402Z,102785.22
2019-02-15T07:05:28.381Z,102787.06
2019-02-15T07:07:57.014Z,102790.70
2019-02-15T07:10:25.391Z,102796.75
2019-02-15T07:12:53.749Z,102796.75
2019-02-15T07:15:22.129Z,102795.07
2019-02-15T07:17:50.505Z,102799.59
2019-02-15T07:20:19.036Z,102800.73
2019-02-15T07:22:47.418Z,102806.31
2019-02-15T07:25:15.778Z,102809.81
2019-02-15T07:27:44.125Z,102800.55
2019-02-15T07:30:15.546Z,102803.45
2019-02-15T07:32:44.068Z,102803.45
2019-02-15T07:35:12.589Z,102806.51
2019-02-15T07:37:40.903Z,102809.73
2019-02-15T07:40:10.409Z,102811.33
2019-02-15T07:42:38.828Z,102806.24
2019-02-15T07:45:09.742Z,102804.67
2019-02-15T07:47:38.093Z,102805.94
2019-02-15T07:50:11.833Z,102805.94
2019-02-15T07:52:40.213Z,102800.29
2019-02-15T07:55:09.071Z,102800.41
2019-02-15T07:57:37.453Z,102800.41
2019-02-15T08:00:14.141Z,102800.41
2019-02-15T08:02:42.492Z,102800.41
2019-02-15T08:05:11.103Z,102794.41
2019-02-15T08:07:39.532Z,102794.41
2019-02-15T08:10:10.228Z,102795.54
2019-02-15T08:12:38.669Z,102802.21
2019-02-15T08:15:09.304Z,102803.00
2019-02-15T08:17:37.661Z,102796.13
2019-02-15T08:20:11.095Z,102789.49
2019-02-15T08:22:39.592Z,102798.11
2019-02-15T08:25:08.816Z,102795.48
2019-02-15T08:27:37.225Z,102790.49
2019-02-15T08:30:08.465Z,102797.86
2019-02-15T08:32:36.862Z,102799.73
2019-02-15T08:35:07.386Z,102796.09
2019-02-15T08:37:35.764Z,102770.19
2019-02-15T08:40:05.985Z,102795.89
2019-02-15T08:42:34.381Z,102796.98
2019-02-15T08:45:03.296Z,102799.67
2019-02-15T08:47:31.643Z,102800.22
2019-02-15T08:49:59.994Z,102799.14
2019-02-15T08:52:28.542Z,102803.66
2019-02-15T08:54:56.892Z,102802.24
2019-02-15T08:57:25.369Z,102798.11
2019-02-15T08:59:53.759Z,102796.23
2019-02-15T09:02:22.984Z,102798.16
2019-02-15T09:04:51.432Z,102801.16
2019-02-15T09:07:19.836Z,102798.98
2019-02-15T09:09:48.205Z,102794.14
2019-02-15T09:12:16.946Z,102796.13
2019-02-15T09:14:45.321Z,102788.77
2019-02-15T09:17:13.763Z,102790.26
2019-02-15T09:19:42.113Z,102793.36
2019-02-15T09:22:10.462Z,102786.78
2019-02-15T09:24:38.808Z,102784.08
2019-02-15T09:27:08.872Z,102786.59
2019-02-15T09:29:37.204Z,102786.13
2019-02-15T09:32:05.629Z,102789.42
2019-02-15T09:34:34.314Z,102789.33
2019-02-15T09:37:03.007Z,102779.59
2019-02-15T09:39:31.382Z,102782.87
2019-02-15T09:41:59.956Z,102786.69
2019-02-15T09:44:28.302Z,102784.30
2019-02-15T09:46:56.665Z,102777.61
2019-02-15T09:49:25.194Z,102780.47
2019-02-15T09:51:55.512Z,102778.07
2019-02-15T09:54:23.650Z,102777.07
2019-02-15T09:56:52.040Z,102778.24
2019-02-15T09:59:20.778Z,102770.28
2019-02-15T10:01:49.133Z,102767.91
2019-02-15T10:04:17.567Z,102769.27
2019-02-15T10:06:46.483Z,102769.03
2019-02-15T10:09:14.841Z,102758.59
2019-02-15T10:11:43.862Z,102761.63
2019-02-15T10:14:12.283Z,102760.32
2019-02-15T10:16:40.646Z,102762.93
2019-02-15T10:19:09.047Z,102760.51
2019-02-15T10:21:38.006Z,102762.72
2019-02-15T10:24:06.349Z,102766.66
2019-02-15T10:26:35.277Z,102762.82
2019-02-15T10:29:04.200Z,102762.41
2019-02-15T10:31:33.138Z,102763.28
2019-02-15T10:34:03.784Z,102763.52
2019-02-15T10:36:32.757Z,102761.03
2019-02-15T10:39:01.684Z,102761.48
2019-02-15T10:41:30.675Z,102760.88
2019-02-15T10:43:59.630Z,102758.87
2019-02-15T10:46:37.482Z,102758.43
2019-02-15T10:48:59.202Z,102754.37
2019-02-15T10:51:28.135Z,102751.75
2019-02-15T10:53:57.087Z,102751.28
2019-02-15T10:56:26.113Z,102743.40
2019-02-15T10:58:55.425Z,102743.42
2019-02-15T11:01:24.356Z,102732.62
2019-02-15T11:03:53.372Z,102732.45
2019-02-15T11:06:22.362Z,102739.16
2019-02-15T11:08:51.339Z,102732.48
2019-02-15T11:11:20.275Z,102728.38
2019-02-15T11:13:49.198Z,102727.33
2019-02-15T11:16:18.164Z,102727.01
2019-02-15T11:18:47.093Z,102726.66
2019-02-15T11:21:16.039Z,102720.92
2019-02-15T11:23:44.996Z,102716.44
2019-02-15T11:26:13.921Z,102716.68
2019-02-15T11:28:42.870Z,102717.05
2019-02-15T11:31:11.807Z,102708.99
2019-02-15T11:33:40.721Z,102709.01
2019-02-15T11:36:09.638Z,102708.52
2019-02-15T11:38:38.585Z,102706.02
2019-02-15T11:41:11.280Z,102703.86
2019-02-15T11:43:38.262Z,102695.78
2019-02-15T11:46:07.153Z,102693.09
2019-02-15T11:48:36.086Z,102691.48
2019-02-15T11:51:05.020Z,102686.45
2019-02-15T11:53:34.028Z,102684.73
2019-02-15T11:56:02.985Z,102682.03
2019-02-15T11:58:31.902Z,102682.95
2019-02-15T12:01:00.845Z,102676.49
2019-02-15T12:03:29.778Z,102670.37
2019-02-15T12:05:58.730Z,102672.89
2019-02-15T12:08:27.663Z,102666.07
2019-02-15T12:10:56.580Z,102664.83
2019-02-15T12:13:25.540Z,102658.70
2019-02-15T12:15:54.483Z,102657.66
2019-02-15T12:18:23.458Z,102656.75
2019-02-15T12:20:52.393Z,102655.31
2019-02-15T12:23:21.320Z,102652.80
2019-02-15T12:25:50.352Z,102656.41
2019-02-15T12:28:19.407Z,102651.40
2019-02-15T12:30:48.354Z,102647.79
2019-02-15T12:33:17.323Z,102644.39
2019-02-15T12:35:46.327Z,102642.91
2019-02-15T12:38:15.236Z,102646.17
2019-02-15T12:40:44.153Z,102646.00
2019-02-15T12:43:13.077Z,102639.89
2019-02-15T12:45:41.996Z,102638.06
2019-02-15T12:48:10.955Z,102629.75
2019-02-15T12:50:39.875Z,102628.52
2019-02-15T12:53:08.821Z,102629.05
2019-02-15T12:55:38.020Z,102618.94
2019-02-15T12:58:06.941Z,102619.51
2019-02-15T13:00:35.920Z,102608.50
2019-02-15T13:03:05.357Z,102609.20
2019-02-15T13:05:34.332Z,102603.09
2019-02-15T13:08:03.259Z,102603.97
2019-02-15T13:10:33.844Z,102603.61
2019-02-15T13:13:02.788Z,102601.46
2019-02-15T13:15:31.731Z,102594.76
2019-02-15T13:18:00.668Z,102591.34
2019-02-15T13:20:29.704Z,102589.52
2019-02-15T13:22:58.642Z,102589.72
2019-02-15T13:25:36.315Z,102584.30
2019-02-15T13:27:58.539Z,102584.30
2019-02-15T13:30:27.726Z,102579.22
2019-02-15T13:32:56.681Z,102573.64
2019-02-15T13:35:25.603Z,102567.14
2019-02-15T13:37:54.535Z,102568.22
2019-02-15T13:40:23.487Z,102572.73
2019-02-15T13:42:52.452Z,102572.36
2019-02-15T13:45:21.740Z,102563.88
2019-02-15T13:47:50.666Z,102558.64
2019-02-15T13:50:19.619Z,102552.16
2019-02-15T13:52:48.587Z,102547.43
2019-02-15T13:55:17.604Z,102549.58
2019-02-15T13:57:46.552Z,102543.81
2019-02-15T14:00:15.491Z,102548.48
2019-02-15T14:02:44.481Z,102540.19
2019-02-15T14:05:13.782Z,102524.67
2019-02-15T14:07:42.682Z,102515.28
2019-02-15T14:10:12.909Z,102518.18
2019-02-15T14:12:41.846Z,102512.55
2019-02-15T14:15:11.536Z,102512.16
2019-02-15T14:17:44.913Z,102510.33
2019-02-15T14:20:12.354Z,102510.50
2019-02-15T14:22:41.285Z,102515.20
2019-02-15T14:25:13.801Z,102511.77
2019-02-15T14:27:42.746Z,102509.78
2019-02-15T14:30:12.852Z,102513.56
2019-02-15T14:32:41.820Z,102507.55
2019-02-15T14:35:13.335Z,102510.69
2019-02-15T14:37:42.283Z,102501.69
2019-02-15T14:40:12.123Z,102499.84
2019-02-15T14:42:41.039Z,102500.31
2019-02-15T14:45:13.873Z,102498.98
2019-02-15T14:47:42.783Z,102500.32
2019-02-15T14:50:11.780Z,102499.30
2019-02-15T14:52:41.122Z,102503.27
2019-02-15T14:55:10.910Z,102494.19
2019-02-15T14:57:39.868Z,102492.59
2019-02-15T15:00:13.872Z,102492.14
2019-02-15T15:02:42.292Z,102494.71
2019-02-15T15:05:13.744Z,102490.78
2019-02-15T15:07:42.873Z,102487.48
2019-02-15T15:10:12.042Z,102477.67
2019-02-15T15:12:41.004Z,102474.33
2019-02-15T15:15:13.057Z,102463.55
2019-02-15T15:17:41.978Z,102466.09
2019-02-15T15:20:12.179Z,102459.25
2019-02-15T15:22:41.151Z,102449.88
2019-02-15T15:25:16.108Z,102453.87
2019-02-15T15:27:43.801Z,102451.14
2019-02-15T15:30:16.049Z,102441.05
2019-02-15T15:32:44.993Z,102447.05
2019-02-15T15:35:13.958Z,102445.09
2019-02-15T15:37:44.070Z,102439.17
2019-02-15T15:40:15.344Z,102434.66
2019-02-15T15:42:44.262Z,102434.84
2019-02-15T15:45:13.275Z,102432.70
2019-02-15T15:47:42.202Z,102424.80
2019-02-15T15:50:11.867Z,102435.80
2019-02-15T15:52:40.803Z,102427.38
2019-02-15T15:55:11.365Z,102429.05
2019-02-15T15:57:40.315Z,102425.12
2019-02-15T16:00:14.053Z,102422.80
2019-02-15T16:02:43.077Z,102419.75
2019-02-15T16:05:12.103Z,102419.23
2019-02-15T16:07:43.248Z,102420.13
2019-02-15T16:10:13.027Z,102422.67
2019-02-15T16:12:41.958Z,102416.36
2019-02-15T16:15:12.267Z,102413.88
2019-02-15T16:17:41.308Z,102413.90
2019-02-15T16:20:11.727Z,102419.50
2019-02-15T16:22:40.635Z,102415.15
2019-02-15T16:25:10.555Z,102404.53
2019-02-15T16:27:39.494Z,102409.56
2019-02-15T16:30:13.292Z,102407.23
2019-02-15T16:32:42.288Z,102404.20
2019-02-15T16:35:11.208Z,102409.22
2019-02-15T16:37:40.150Z,102404.55
2019-02-15T16:40:12.050Z,102404.73
2019-02-15T16:42:40.993Z,102403.66
2019-02-15T16:45:12.918Z,102406.56
2019-02-15T16:47:41.898Z,102398.99
2019-02-15T16:50:10.949Z,102401.14
2019-02-15T16:52:40.027Z,102400.23
2019-02-15T16:55:12.744Z,102393.40
2019-02-15T16:57:40.017Z,102389.20
2019-02-15T17:00:11.387Z,102401.63
2019-02-15T17:02:40.364Z,102400.94
2019-02-15T17:05:09.357Z,102404.16
2019-02-15T17:07:38.281Z,102393.00
2019-02-15T17:10:09.047Z,102395.87
2019-02-15T17:12:37.977Z,102398.39
2019-02-15T17:15:10.254Z,102396.92
2019-02-15T17:17:39.291Z,102393.88
2019-02-15T17:20:09.459Z,102389.87
2019-02-15T17:22:38.606Z,102388.80
2019-02-15T17:25:09.790Z,102388.41
2019-02-15T17:27:38.861Z,102386.78
2019-02-15T17:30:12.077Z,102387.69
2019-02-15T17:32:41.373Z,102389.82
2019-02-15T17:35:11.353Z,102390.55
2019-02-15T17:37:40.345Z,102380.44
2019-02-15T17:40:16.306Z,102382.78
2019-02-15T17:42:45.328Z,102378.13
2019-02-15T17:45:14.278Z,102375.61
2019-02-15T17:47:43.530Z,102379.05
2019-02-15T17:50:12.758Z,102373.63
2019-02-15T17:52:41.792Z,102374.72
2019-02-15T17:55:10.818Z,102375.80
2019-02-15T17:57:40.781Z,102372.75
2019-02-15T18:00:12.229Z,102369.84
2019-02-15T18:02:41.469Z,102364.45
2019-02-15T18:05:12.527Z,102359.92
2019-02-15T18:07:41.444Z,102360.61
2019-02-15T18:10:12.169Z,102366.91
2019-02-15T18:12:41.172Z,102367.80
2019-02-15T18:15:10.442Z,102359.52
2019-02-15T18:17:39.375Z,102359.52
2019-02-15T18:20:09.257Z,102354.14
2019-02-15T18:22:42.066Z,102350.53
2019-02-15T18:25:11.171Z,102345.14
2019-02-15T18:27:40.089Z,102347.09
2019-02-15T18:30:12.794Z,102347.27
2019-02-15T18:32:41.674Z,102340.97
2019-02-15T18:35:10.593Z,102346.00
2019-02-15T18:37:39.948Z,102341.83
2019-02-15T18:40:10.483Z,102340.73
2019-02-15T18:42:39.414Z,102335.67
2019-02-15T18:45:11.585Z,102339.27
2019-02-15T18:47:40.783Z,102336.19
2019-02-15T18:50:29.483Z,102338.87
2019-02-15T18:52:58.796Z,102333.66
2019-02-15T18:55:31.595Z,102333.15
2019-02-15T18:58:00.501Z,102335.69
2019-02-15T19:00:29.469Z,102330.65
2019-02-15T19:02:58.669Z,102325.25
2019-02-15T19:05:27.637Z,102326.45
2019-02-15T19:07:56.572Z,102321.39
2019-02-15T19:10:25.497Z,102326.57
2019-02-15T19:12:54.452Z,102320.00
2019-02-15T19:15:23.399Z,102320.90
2019-02-15T19:17:52.449Z,102320.17
2019-02-15T19:20:21.404Z,102321.96
2019-02-15T19:22:50.591Z,102322.28
2019-02-15T19:25:20.574Z,102318.07
2019-02-15T19:27:49.766Z,102319.98
2019-02-15T19:30:27.515Z,102317.78
2019-02-15T19:32:56.447Z,102315.92
2019-02-15T19:35:25.438Z,102313.23
2019-02-15T19:37:54.390Z,102309.33
2019-02-15T19:40:23.426Z,102314.77
2019-02-15T19:42:55.496Z,102309.42
2019-02-15T19:45:24.449Z,102301.58
2019-02-15T19:47:53.357Z,102296.09
2019-02-15T19:50:22.405Z,102297.24
2019-02-15T19:52:51.356Z,102289.52
2019-02-15T19:55:20.443Z,102293.06
2019-02-15T19:57:49.430Z,102288.36
2019-02-15T20:00:19.389Z,102279.90
2019-02-15T20:02:48.388Z,102282.56
2019-02-15T20:05:17.710Z,102281.80
2019-02-15T20:07:46.601Z,102282.78
2019-02-15T20:10:18.739Z,102273.37
2019-02-15T20:12:47.767Z,102270.80
2019-02-15T20:15:16.752Z,102273.48
2019-02-15T20:17:45.702Z,102270.78
2019-02-15T20:20:16.064Z,102269.02
2019-02-15T20:22:45.024Z,102265.59
2019-02-15T20:25:14.121Z,102270.30
2019-02-15T20:27:44.957Z,102265.81
2019-02-15T20:30:19.798Z,102266.39
2019-02-15T20:32:48.222Z,102258.55
2019-02-15T20:35:17.161Z,102257.47
2019-02-15T20:37:46.077Z,102251.94
2019-02-15T20:40:15.015Z,102252.34
2019-02-15T20:42:43.955Z,102253.44
2019-02-15T20:45:15.624Z,102249.46
2019-02-15T20:47:44.754Z,102251.45
2019-02-15T20:50:14.542Z,102251.10
2019-02-15T20:52:43.484Z,102246.58
2019-02-15T20:55:18.589Z,102248.51
2019-02-15T20:57:46.318Z,102246.39
2019-02-15T21:00:23.496Z,102244.57
2019-02-15T21:02:52.431Z,102244.91
2019-02-15T21:05:21.382Z,102249.01
2019-02-15T21:07:50.363Z,102247.39
2019-02-15T21:10:19.269Z,102250.80
2019-02-15T21:12:48.216Z,102247.69
2019-02-15T21:15:17.136Z,102246.23
2019-02-15T21:17:46.463Z,102244.75
2019-02-15T21:20:16.073Z,102245.47
2019-02-15T21:22:45.115Z,102242.02
2019-02-15T21:25:15.896Z,102243.44
2019-02-15T21:27:44.829Z,102236.76
2019-02-15T21:30:18.047Z,102235.16
2019-02-15T21:32:46.986Z,102235.70
2019-02-15T21:35:15.986Z,102238.54
2019-02-15T21:37:44.930Z,102229.91
2019-02-15T21:40:17.608Z,102231.00
2019-02-15T21:42:46.524Z,102231.70
2019-02-15T21:45:15.477Z,102225.20
2019-02-15T21:47:44.405Z,102229.97
2019-02-15T21:50:17.121Z,102225.27
2019-02-15T21:52:44.796Z,102224.16
2019-02-15T21:55:15.309Z,102227.19
2019-02-15T21:57:44.296Z,102224.77
2019-02-15T22:00:18.346Z,102219.72
2019-02-15T22:02:46.740Z,102212.19
2019-02-15T22:05:16.140Z,102210.25
2019-02-15T22:07:45.244Z,102209.55
2019-02-15T22:10:14.181Z,102207.41
2019-02-15T22:12:43.396Z,102200.73
2019-02-15T22:15:14.265Z,102199.27
2019-02-15T22:17:43.370Z,102194.03
2019-02-15T22:20:14.839Z,102172.20
2019-02-15T22:22:43.890Z,102195.08
2019-02-15T22:25:13.063Z,102198.06
2019-02-15T22:27:42.371Z,102190.30
2019-02-15T22:30:15.992Z,102192.43
2019-02-15T22:32:44.938Z,102181.72
2019-02-15T22:35:13.851Z,102182.81
2019-02-15T22:37:42.792Z,102175.28
2019-02-15T22:40:31.390Z,102176.01
2019-02-15T22:43:11.953Z,102171.81
2019-02-15T22:45:41.020Z,102172.27
2019-02-15T22:48:10.005Z,102168.47
2019-02-15T22:50:38.924Z,102172.83
2019-02-15T22:53:07.881Z,102170.88
2019-02-15T22:55:37.226Z,102173.55
2019-02-15T22:58:06.176Z,102172.00
2019-02-15T23:00:46.467Z,102164.90
2019-02-15T23:03:16.592Z,102166.69
2019-02-15T23:05:45.526Z,102166.69
2019-02-15T23:08:14.477Z,102161.27
2019-02-15T23:10:43.411Z,102163.00
2019-02-15T23:13:12.363Z,102166.15
2019-02-15T23:15:41.422Z,102158.78
2019-02-15T23:18:10.382Z,102156.43
2019-02-15T23:20:45.200Z,102148.72
2019-02-15T23:23:10.036Z,102149.76
2019-02-15T23:25:38.968Z,102148.66
2019-02-15T23:28:07.996Z,102147.19
2019-02-15T23:30:36.992Z,102146.75
2019-02-15T23:33:05.957Z,102143.23
2019-02-15T23:35:37.332Z,102145.15
2019-02-15T23:38:06.258Z,102147.12
2019-02-15T23:40:35.318Z,102145.88
2019-02-15T23:43:04.461Z,102151.80
2019-02-15T23:45:33.464Z,102143.89
2019-02-15T23:48:02.499Z,102134.24
2019-02-15T23:53:06.070Z,102132.58
2019-02-15T23:55:34.317Z,102128.31
2019-02-15T23:58:02.661Z,102132.83
